Time;durP1;ratioP1;P1;durP2;ratioP2;P2;SDS_P1;SDS_P2;PMS_P1;PMS_P2;Temp;Humidity;BMP_temperature;BMP_pressure;BME280_temperature;BME280_humidity;BME280_pressure;Samples;Min_cycle;Max_cycle;Signal;HPM_P1;HPM_P2
2021/08/26 00:00:07;;;;;;;;;15.25;15.00;;;;;21.10;40.46;101367.28;5062044;28;45417;-58
2021/08/26 00:08:00;;;;;;;;;16.25;15.00;;;;;20.97;40.60;101368.81;5062064;28;45408;-58
2021/08/26 00:10:25;;;;;;;;;18.50;16.75;;;;;20.93;40.55;101381.47;5061254;28;45293;-58
2021/08/26 00:12:52;;;;;;;;;19.25;16.00;;;;;20.91;41.40;101374.47;5061777;28;45384;-58
2021/08/26 00:15:18;;;;;;;;;14.00;14.00;;;;;20.87;41.08;101379.09;5061634;28;45315;-58
2021/08/26 00:17:45;;;;;;;;;15.25;13.75;;;;;20.81;41.24;101375.84;5086283;27;45256;-58
2021/08/26 00:20:11;;;;;;;;;17.00;16.50;;;;;20.77;41.63;101381.31;5095971;27;45434;-59
2021/08/26 00:22:37;;;;;;;;;14.25;14.25;;;;;20.74;41.43;101386.81;5069217;28;45332;-58
2021/08/26 00:25:03;;;;;;;;;16.00;14.25;;;;;20.71;41.29;101384.25;5061179;28;45242;-58
2021/08/26 00:27:29;;;;;;;;;15.75;14.75;;;;;20.68;41.53;101386.19;5061654;28;45271;-57
2021/08/26 00:29:54;;;;;;;;;15.75;15.00;;;;;20.66;41.50;101380.91;5073828;28;45695;-58
2021/08/26 00:32:19;;;;;;;;;17.50;13.25;;;;;20.63;41.84;101387.25;5073976;28;46088;-58
2021/08/26 00:34:45;;;;;;;;;14.75;12.75;;;;;20.60;41.48;101381.19;5062229;28;45237;-58
2021/08/26 00:37:10;;;;;;;;;16.50;15.25;;;;;20.59;41.50;101387.47;5086621;27;45168;-58
2021/08/26 00:39:35;;;;;;;;;15.25;13.00;;;;;20.55;42.03;101392.09;5082400;27;45454;-59
2021/08/26 00:42:01;;;;;;;;;14.50;14.25;;;;;20.50;42.11;101378.06;5091660;27;46146;-58
2021/08/26 00:44:26;;;;;;;;;21.00;18.50;;;;;20.49;42.17;101378.16;5088283;27;45228;-58
2021/08/26 00:46:51;;;;;;;;;18.25;15.75;;;;;20.45;41.86;101380.09;5069633;27;45378;-58
2021/08/26 00:49:17;;;;;;;;;15.75;15.75;;;;;20.41;41.90;101384.69;5061104;28;45311;-58
2021/08/26 00:51:46;;;;;;;;;17.25;15.00;;;;;20.37;42.24;101380.44;5061142;28;45346;-58
2021/08/26 00:54:13;;;;;;;;;17.25;15.00;;;;;20.33;42.43;101384.19;5061014;28;45158;-58
2021/08/26 00:56:39;;;;;;;;;18.50;16.50;;;;;20.27;42.69;101381.81;5061253;28;45212;-58
2021/08/26 00:59:06;;;;;;;;;14.75;14.25;;;;;20.24;42.40;101382.81;5059540;28;45399;-57
2021/08/26 01:02:15;;;;;;;;;15.25;15.25;;;;;20.17;42.41;101375.16;5060859;28;45470;-58
2021/08/26 01:04:51;;;;;;;;;16.25;14.75;;;;;20.18;42.87;101377.75;5020747;28;45569;-58
2021/08/26 01:07:42;;;;;;;;;17.75;17.00;;;;;20.15;42.60;101377.91;5061154;28;45430;-58
2021/08/26 01:10:12;;;;;;;;;13.50;13.25;;;;;20.11;42.64;101370.94;5060454;28;45573;-57
2021/08/26 01:12:39;;;;;;;;;19.00;16.25;;;;;20.09;42.74;101368.34;5060558;28;46141;-58
2021/08/26 01:15:06;;;;;;;;;15.50;15.50;;;;;20.07;42.89;101378.22;5060705;28;45296;-58
2021/08/26 01:17:31;;;;;;;;;14.00;13.25;;;;;20.04;43.18;101377.50;5060915;28;45402;-58
2021/08/26 01:19:59;;;;;;;;;17.50;16.25;;;;;20.01;43.29;101382.97;5060458;28;45298;-58
2021/08/26 01:22:26;;;;;;;;;14.50;14.25;;;;;19.96;43.43;101369.81;5067346;28;46916;-58
2021/08/26 01:24:58;;;;;;;;;14.50;13.25;;;;;19.94;43.55;101369.03;5073853;28;45295;-58
2021/08/26 01:27:27;;;;;;;;;12.50;11.25;;;;;19.90;43.12;101373.63;5060647;28;45326;-57
2021/08/26 01:29:53;;;;;;;;;15.50;11.75;;;;;19.89;43.35;101371.03;5059947;28;45215;-57
2021/08/26 01:32:20;;;;;;;;;11.00;10.00;;;;;19.87;43.48;101373.75;5060293;28;45240;-60
2021/08/26 01:34:48;;;;;;;;;11.75;11.75;;;;;19.85;43.07;101369.41;5067819;28;45301;-59
2021/08/26 01:37:17;;;;;;;;;8.50;8.00;;;;;19.84;43.14;101367.69;5094209;27;45502;-58
2021/08/26 01:39:46;;;;;;;;;15.50;12.50;;;;;19.81;43.37;101356.19;5080271;28;45338;-58
2021/08/26 01:42:12;;;;;;;;;8.25;8.00;;;;;19.78;43.30;101355.47;5067539;28;47063;-57
2021/08/26 01:44:37;;;;;;;;;10.00;9.50;;;;;19.75;43.59;101359.13;5092059;27;45304;-58
2021/08/26 01:47:24;;;;;;;;;10.50;8.50;;;;;19.72;43.28;101359.28;5067704;28;45236;-58
2021/08/26 01:49:52;;;;;;;;;8.50;6.75;;;;;19.68;43.46;101354.97;5069741;28;45253;-57
2021/08/26 01:52:21;;;;;;;;;8.00;7.50;;;;;19.68;43.78;101362.13;5092766;27;48142;-58
2021/08/26 01:54:53;;;;;;;;;5.75;5.75;;;;;19.48;43.41;101338.06;5079132;28;45289;-58
2021/08/26 01:57:20;;;;;;;;;8.00;7.50;;;;;19.59;43.98;101347.38;5076048;28;45336;-58
2021/08/26 01:59:47;;;;;;;;;9.00;8.00;;;;;19.56;43.73;101360.81;5060255;28;45240;-58
2021/08/26 02:02:12;;;;;;;;;9.00;9.00;;;;;19.51;44.18;101354.81;5059801;28;46261;-58
2021/08/26 02:04:38;;;;;;;;;9.75;8.00;;;;;19.48;44.16;101359.38;5060043;28;45292;-58
2021/08/26 02:07:03;;;;;;;;;7.00;7.00;;;;;19.44;44.01;101349.75;5058951;28;45242;-58
2021/08/26 02:09:28;;;;;;;;;9.50;7.50;;;;;19.41;44.43;101355.22;5060162;28;45506;-58
2021/08/26 02:11:54;;;;;;;;;8.00;8.00;;;;;19.39;44.08;101345.56;5059651;28;46209;-58
2021/08/26 02:14:19;;;;;;;;;9.50;8.00;;;;;19.33;44.00;101349.31;5060168;28;45403;-58
2021/08/26 02:16:44;;;;;;;;;11.00;10.50;;;;;19.34;44.46;101353.72;5060000;28;45320;-57
2021/08/26 02:19:10;;;;;;;;;9.00;9.00;;;;;19.30;44.53;101354.81;5060163;28;45469;-58
2021/08/26 02:21:35;;;;;;;;;10.75;9.75;;;;;19.28;44.54;101352.19;5059425;28;46192;-58
2021/08/26 02:24:01;;;;;;;;;9.25;9.25;;;;;19.26;44.46;101350.53;5059836;28;45463;-58
2021/08/26 02:26:26;;;;;;;;;10.25;9.25;;;;;19.23;44.25;101345.31;5059981;28;45312;-58
2021/08/26 02:28:51;;;;;;;;;12.75;9.00;;;;;19.20;44.66;101348.13;5059879;28;45486;-58
2021/08/26 02:31:17;;;;;;;;;9.00;8.50;;;;;19.17;44.62;101347.31;5059536;28;46030;-58
2021/08/26 02:33:42;;;;;;;;;10.25;9.00;;;;;19.15;44.76;101348.28;5059822;28;45312;-57
2021/08/26 02:36:07;;;;;;;;;8.25;8.00;;;;;19.12;44.56;101353.75;5059824;28;45328;-58
2021/08/26 02:38:33;;;;;;;;;10.75;9.50;;;;;19.09;44.52;101348.53;5067643;28;45457;-58
2021/08/26 02:40:58;;;;;;;;;11.00;9.50;;;;;19.09;44.98;101356.53;5077136;27;45211;-59
2021/08/26 02:43:23;;;;;;;;;11.00;9.50;;;;;19.06;44.89;101354.00;5061764;28;45271;-58
2021/08/26 02:45:49;;;;;;;;;12.75;12.00;;;;;19.04;44.83;101356.72;5075067;28;45514;-58
2021/08/26 02:48:14;;;;;;;;;10.75;10.00;;;;;19.02;44.93;101358.59;5063251;28;45194;-58
2021/08/26 02:50:39;;;;;;;;;14.25;11.50;;;;;18.98;44.77;101354.28;5062910;28;45265;-58
2021/08/26 02:53:05;;;;;;;;;10.00;9.25;;;;;18.96;45.01;101345.50;5063217;28;45308;-58
2021/08/26 02:55:30;;;;;;;;;9.50;9.50;;;;;18.94;45.24;101344.69;5062979;28;45236;-58
2021/08/26 02:57:56;;;;;;;;;11.25;9.75;;;;;18.89;45.12;101342.16;5062960;28;45237;-58
2021/08/26 03:00:22;;;;;;;;;11.50;10.25;;;;;18.89;45.32;101349.31;5068035;27;45372;-58
2021/08/26 03:02:47;;;;;;;;;13.00;11.50;;;;;18.87;45.09;101348.47;5094121;27;45293;-58
2021/08/26 03:05:12;;;;;;;;;10.00;8.75;;;;;18.83;45.31;101343.28;5067132;28;45225;-58
2021/08/26 03:07:38;;;;;;;;;10.00;9.00;;;;;18.81;45.47;101345.13;5079960;27;45404;-58
2021/08/26 03:10:04;;;;;;;;;12.75;11.50;;;;;18.80;45.29;101345.19;5084826;27;45737;-58
2021/08/26 03:12:29;;;;;;;;;10.00;10.00;;;;;18.78;45.27;101342.63;5062571;28;45395;-58
2021/08/26 03:14:54;;;;;;;;;12.00;11.50;;;;;18.74;45.56;101351.66;5062695;28;45357;-58
2021/08/26 03:17:20;;;;;;;;;13.75;12.00;;;;;18.75;45.61;101355.16;5062898;28;45318;-59
2021/08/26 03:19:45;;;;;;;;;12.00;10.25;;;;;18.73;45.53;101352.56;5062419;28;46181;-59
2021/08/26 03:22:10;;;;;;;;;14.50;11.50;;;;;18.70;45.62;101347.34;5069978;28;45328;-58
2021/08/26 03:24:35;;;;;;;;;14.00;12.00;;;;;18.72;45.35;101349.97;5080804;28;45389;-58
2021/08/26 03:27:01;;;;;;;;;12.25;10.50;;;;;18.66;45.36;101340.41;5062704;28;45320;-59
2021/08/26 03:29:26;;;;;;;;;9.75;8.00;;;;;18.67;45.71;101342.16;5062341;28;45309;-58
2021/08/26 03:31:51;;;;;;;;;11.00;9.25;;;;;18.62;45.49;101331.69;5062520;28;45318;-58
2021/08/26 03:34:17;;;;;;;;;10.25;9.25;;;;;18.62;45.48;101333.50;5062556;28;45192;-58
2021/08/26 03:36:42;;;;;;;;;15.25;12.00;;;;;18.59;45.80;101329.16;5062651;28;45322;-58
2021/08/26 03:39:08;;;;;;;;;12.50;10.75;;;;;18.56;45.62;101328.41;5074970;28;47044;-59
2021/08/26 03:41:33;;;;;;;;;11.75;11.75;;;;;18.55;45.62;101332.84;5075282;28;45409;-58
2021/08/26 03:43:59;;;;;;;;;13.50;10.75;;;;;18.51;45.76;101337.44;5062326;28;45336;-58
2021/08/26 03:46:24;;;;;;;;;12.75;12.00;;;;;18.48;45.92;101337.53;5076770;28;45439;-58
2021/08/26 03:48:50;;;;;;;;;11.75;9.50;;;;;18.47;45.88;101342.91;5081587;28;46136;-59
2021/08/26 03:51:15;;;;;;;;;10.00;10.00;;;;;18.45;45.76;101339.44;5062150;28;45158;-58
2021/08/26 03:53:40;;;;;;;;;9.00;9.00;;;;;18.41;45.95;101345.81;5061606;28;45338;-58
2021/08/26 03:56:06;;;;;;;;;11.75;9.25;;;;;18.40;46.05;101342.28;5062230;28;45264;-58
2021/08/26 03:58:33;;;;;;;;;10.00;9.75;;;;;18.38;45.95;101340.59;5061836;28;45174;-58
2021/08/26 04:01:05;;;;;;;;;40.00;33.00;;;;;18.37;46.21;101344.19;5062155;28;45255;-58
2021/08/26 04:03:32;;;;;;;;;6.25;6.25;;;;;18.34;46.30;101338.06;5062095;28;45428;-58
2021/08/26 04:05:57;;;;;;;;;13.00;10.75;;;;;18.32;46.19;101339.03;5061939;28;45449;-58
2021/08/26 04:08:23;;;;;;;;;7.25;7.25;;;;;18.30;46.02;101346.19;5061502;28;46268;-58
2021/08/26 04:10:48;;;;;;;;;14.00;9.25;;;;;18.30;46.06;101338.22;5061907;28;45391;-58
2021/08/26 04:13:14;;;;;;;;;9.00;7.50;;;;;18.29;46.18;101341.84;5061924;28;45465;-58
2021/08/26 04:15:39;;;;;;;;;11.50;8.50;;;;;18.28;46.29;101345.41;5070074;28;45573;-58
2021/08/26 04:18:05;;;;;;;;;11.25;10.25;;;;;18.26;46.38;101353.41;5079385;28;45431;-58
2021/08/26 04:20:30;;;;;;;;;10.00;8.50;;;;;18.25;46.42;101346.38;5061629;28;45362;-58
2021/08/26 04:22:55;;;;;;;;;10.25;10.25;;;;;18.24;46.39;101346.41;5061860;28;45248;-58
2021/08/26 04:25:20;;;;;;;;;11.00;10.25;;;;;18.19;46.45;101341.28;5061567;28;45327;-58
2021/08/26 04:27:46;;;;;;;;;8.25;8.25;;;;;18.21;46.45;101343.88;5061397;28;46135;-58
2021/08/26 04:30:12;;;;;;;;;9.00;9.00;;;;;18.19;46.43;101343.94;5061622;28;45320;-58
2021/08/26 04:32:38;;;;;;;;;12.00;10.75;;;;;18.18;46.47;101342.22;5061502;28;45248;-58
2021/08/26 04:35:03;;;;;;;;;9.00;9.00;;;;;18.16;46.44;101347.59;5061540;28;45621;-58
2021/08/26 04:37:29;;;;;;;;;8.75;8.00;;;;;18.14;46.71;101336.13;5061222;28;46045;-58
2021/08/26 04:39:55;;;;;;;;;7.00;7.00;;;;;18.05;46.53;101331.16;5081060;28;45381;-58
2021/08/26 04:42:20;;;;;;;;;10.50;7.00;;;;;18.12;46.60;101343.28;5067264;28;45241;-58
2021/08/26 04:44:45;;;;;;;;;8.50;8.50;;;;;18.08;46.62;101328.38;5061834;28;45510;-58
2021/08/26 04:47:11;;;;;;;;;9.25;7.50;;;;;18.08;46.52;101333.69;5080841;28;45153;-58
2021/08/26 04:49:36;;;;;;;;;11.00;9.00;;;;;18.07;46.77;101331.09;5061446;28;45209;-58
2021/08/26 04:52:02;;;;;;;;;11.50;9.00;;;;;18.05;46.62;101339.13;5073826;28;45360;-58
2021/08/26 04:54:27;;;;;;;;;27.00;25.75;;;;;18.03;46.69;101336.50;5079981;28;45465;-58
2021/08/26 04:56:52;;;;;;;;;13.00;11.25;;;;;18.02;46.83;101339.22;5079531;28;47065;-59
2021/08/26 04:59:17;;;;;;;;;10.50;8.50;;;;;18.00;46.81;101333.97;5061178;28;45334;-59
2021/08/26 05:01:43;;;;;;;;;9.75;6.25;;;;;18.00;46.67;101338.44;5061043;28;45241;-59
2021/08/26 05:04:08;;;;;;;;;7.00;7.00;;;;;17.95;46.94;101332.38;5061259;28;45328;-58
2021/08/26 05:06:34;;;;;;;;;3.50;3.50;;;;;17.98;46.74;101348.25;5059841;28;46075;-58
2021/08/26 05:08:59;;;;;;;;;5.25;4.00;;;;;17.97;47.08;101342.03;5060977;28;45482;-58
2021/08/26 05:11:25;;;;;;;;;8.00;4.00;;;;;17.95;47.13;101337.72;5060832;28;45319;-58
2021/08/26 05:13:50;;;;;;;;;6.25;5.00;;;;;17.96;47.00;101339.44;5060799;28;45393;-58
2021/08/26 05:16:16;;;;;;;;;5.00;4.25;;;;;17.97;46.98;101335.88;5060701;28;46283;-58
2021/08/26 05:18:41;;;;;;;;;5.00;4.75;;;;;17.96;47.12;101340.34;5060994;28;45244;-58
2021/08/26 05:21:07;;;;;;;;;5.50;5.50;;;;;17.95;46.97;101338.59;5060674;28;45509;-58
2021/08/26 05:23:32;;;;;;;;;4.25;3.50;;;;;17.96;46.97;101340.34;5060797;28;46180;-58
2021/08/26 05:25:57;;;;;;;;;4.00;4.00;;;;;17.96;47.10;101339.44;5060507;28;46024;-58
2021/08/26 05:28:23;;;;;;;;;5.00;4.00;;;;;17.97;47.35;101338.53;5060766;28;45291;-58
2021/08/26 05:30:48;;;;;;;;;4.00;4.00;;;;;17.97;47.18;101341.19;5060671;28;45293;-58
2021/08/26 05:33:13;;;;;;;;;6.25;5.00;;;;;17.95;47.37;101337.72;5060745;28;45204;-59
2021/08/26 05:35:39;;;;;;;;;3.00;2.25;;;;;17.99;47.29;101339.34;5060518;28;45938;-59
2021/08/26 05:38:04;;;;;;;;;6.00;4.75;;;;;17.99;47.38;101342.00;5064867;28;45351;-59
2021/08/26 05:40:30;;;;;;;;;4.75;4.00;;;;;18.01;47.46;101343.69;5080725;28;45173;-58
2021/08/26 05:42:56;;;;;;;;;3.50;3.00;;;;;18.01;47.41;101349.00;5061381;28;45520;-61
2021/08/26 05:45:21;;;;;;;;;3.00;3.00;;;;;18.03;47.60;101336.50;5067057;28;45355;-58
2021/08/26 05:47:46;;;;;;;;;3.50;3.50;;;;;18.06;47.37;101342.66;5074846;28;45218;-59
2021/08/26 05:50:12;;;;;;;;;4.50;3.50;;;;;18.06;47.74;101338.19;5060480;28;45399;-58
2021/08/26 05:52:37;;;;;;;;;4.00;3.00;;;;;18.10;47.57;101337.19;5060171;28;45348;-59
2021/08/26 05:55:03;;;;;;;;;3.25;3.25;;;;;18.11;47.45;101338.03;5060170;28;46164;-59
2021/08/26 05:57:28;;;;;;;;;6.25;3.00;;;;;18.14;47.53;101346.78;5060103;28;45327;-59
2021/08/26 05:59:53;;;;;;;;;5.00;3.75;;;;;18.17;47.78;101338.66;5060408;28;45364;-59
2021/08/26 06:02:19;;;;;;;;;1.75;1.75;;;;;18.19;47.87;101338.63;5060037;28;45294;-59
2021/08/26 06:04:44;;;;;;;;;3.75;3.75;;;;;18.20;47.66;101332.41;5060199;28;46007;-59
2021/08/26 06:07:09;;;;;;;;;5.00;3.50;;;;;18.18;47.68;101329.78;5072360;28;45298;-58
2021/08/26 06:09:35;;;;;;;;;6.50;4.00;;;;;18.28;47.61;101340.09;5072190;28;45363;-59
2021/08/26 06:12:00;;;;;;;;;4.75;3.75;;;;;18.30;47.97;101343.53;5061209;28;45520;-58
2021/08/26 06:14:25;;;;;;;;;3.75;3.00;;;;;18.33;47.86;101343.44;5060067;28;45303;-59
2021/08/26 06:16:51;;;;;;;;;3.25;3.00;;;;;18.36;47.63;101338.00;5058357;28;45337;-59
2021/08/26 06:19:16;;;;;;;;;3.00;3.00;;;;;18.38;47.99;101338.81;5060320;28;45210;-57
2021/08/26 06:21:41;;;;;;;;;4.25;4.00;;;;;18.43;47.75;101338.66;5059330;28;46640;-57
2021/08/26 06:24:07;;;;;;;;;4.00;4.00;;;;;18.44;47.88;101335.94;5070076;28;46970;-57
2021/08/26 06:26:37;;;;;;;;;5.25;4.75;;;;;18.47;47.95;101341.13;5060533;28;45261;-57
2021/08/26 06:29:03;;;;;;;;;3.25;3.00;;;;;18.49;48.29;101341.94;5072283;28;45345;-56
2021/08/26 06:31:28;;;;;;;;;2.00;2.00;;;;;18.54;48.31;101349.75;5060758;28;45306;-57
2021/08/26 06:33:54;;;;;;;;;4.25;3.75;;;;;18.51;47.96;101344.53;5059754;28;46217;-57
2021/08/26 06:36:19;;;;;;;;;7.00;3.00;;;;;18.61;47.89;101353.03;5059659;28;45367;-55
2021/08/26 06:38:44;;;;;;;;;5.75;4.50;;;;;18.65;48.06;101354.66;5069575;28;45287;-56
2021/08/26 06:41:10;;;;;;;;;2.75;2.75;;;;;18.68;48.27;101350.06;5075502;28;48234;-57
2021/08/26 06:43:36;;;;;;;;;6.25;3.00;;;;;18.74;48.13;101348.09;5059585;28;46029;-56
2021/08/26 06:46:02;;;;;;;;;4.25;4.00;;;;;18.77;48.32;101350.66;5071972;28;45465;-57
2021/08/26 06:48:27;;;;;;;;;4.25;4.25;;;;;18.81;48.08;101341.63;5068827;28;45419;-58
2021/08/26 06:50:53;;;;;;;;;2.00;2.00;;;;;18.87;48.21;101343.16;5059480;28;45192;-57
2021/08/26 06:53:18;;;;;;;;;2.75;2.75;;;;;18.90;48.31;101341.28;5058292;28;48027;-58
2021/08/26 06:55:43;;;;;;;;;2.25;1.75;;;;;18.95;48.38;101341.09;5090890;27;45178;-58
2021/08/26 06:58:08;;;;;;;;;2.50;2.50;;;;;18.98;48.45;101346.28;5069034;28;45310;-57
2021/08/26 07:00:34;;;;;;;;;2.75;1.75;;;;;19.02;48.37;101337.28;5059240;28;45544;-57
2021/08/26 07:02:59;;;;;;;;;4.00;2.25;;;;;19.07;48.41;101334.41;5059458;28;45216;-58
2021/08/26 07:05:24;;;;;;;;;1.75;1.75;;;;;19.11;48.25;101341.38;5059308;28;45298;-57
2021/08/26 07:07:50;;;;;;;;;2.00;2.00;;;;;19.14;48.48;101339.44;5059820;28;45391;-57
2021/08/26 07:10:16;;;;;;;;;1.50;1.50;;;;;19.20;48.67;101348.13;5058986;28;45285;-57
2021/08/26 07:12:42;;;;;;;;;2.75;2.25;;;;;19.24;48.49;101341.72;5059065;28;46139;-58
2021/08/26 07:15:08;;;;;;;;;3.00;3.00;;;;;19.28;48.47;101335.34;5059144;28;45303;-57
2021/08/26 07:17:33;;;;;;;;;3.25;3.25;;;;;19.30;48.37;101331.66;5059457;28;45335;-57
2021/08/26 07:19:59;;;;;;;;;1.25;0.75;;;;;19.35;48.67;101334.16;5058888;28;45341;-57
2021/08/26 07:22:24;;;;;;;;;1.00;1.00;;;;;19.33;48.47;101322.69;5068924;28;47104;-57
2021/08/26 07:24:50;;;;;;;;;3.00;1.00;;;;;19.42;48.87;101338.31;5074377;28;45269;-57
2021/08/26 07:27:15;;;;;;;;;1.25;1.25;;;;;19.46;48.70;101339.03;5069103;28;45383;-57
2021/08/26 07:29:40;;;;;;;;;1.00;1.00;;;;;19.49;48.95;101338.91;5063730;28;45298;-57
2021/08/26 07:32:06;;;;;;;;;3.25;3.00;;;;;19.53;48.94;101334.31;5062472;28;46271;-58
2021/08/26 07:34:31;;;;;;;;;2.00;2.00;;;;;19.57;48.95;101334.13;5062363;28;45493;-58
2021/08/26 07:36:57;;;;;;;;;3.00;2.75;;;;;19.61;48.35;101337.53;5063066;28;45334;-58
2021/08/26 07:39:22;;;;;;;;;1.00;1.00;;;;;19.64;48.79;101334.72;5077177;28;45200;-58
2021/08/26 07:41:47;;;;;;;;;3.25;3.00;;;;;19.68;48.64;101333.66;5072996;28;45932;-58
2021/08/26 07:44:13;;;;;;;;;1.75;1.75;;;;;19.72;48.97;101337.06;5062290;28;45227;-58
2021/08/26 07:46:38;;;;;;;;;2.00;2.00;;;;;19.77;48.54;101332.38;5080073;28;45332;-58
2021/08/26 07:49:05;;;;;;;;;1.25;1.25;;;;;19.79;48.93;101338.53;5082413;28;45535;-57
2021/08/26 07:51:30;;;;;;;;;4.00;2.25;;;;;19.86;49.01;101341.81;5082430;28;46252;-57
2021/08/26 07:53:56;;;;;;;;;1.25;1.25;;;;;19.89;48.87;101334.56;5082072;28;45299;-57
2021/08/26 07:56:21;;;;;;;;;2.00;1.25;;;;;19.96;49.13;101337.81;5082615;28;45214;-57
2021/08/26 07:58:46;;;;;;;;;3.00;2.00;;;;;20.00;48.95;101336.75;5067382;28;45956;-57
2021/08/26 08:01:12;;;;;;;;;2.00;2.00;;;;;20.07;48.57;101337.34;5082622;28;45314;-57
2021/08/26 08:03:37;;;;;;;;;3.00;2.25;;;;;20.10;48.52;101338.06;5082103;28;45342;-57
2021/08/26 08:06:03;;;;;;;;;2.00;2.00;;;;;20.14;48.95;101333.47;5082597;28;45531;-58
2021/08/26 08:08:29;;;;;;;;;8.75;4.00;;;;;20.19;48.63;101336.78;5081975;28;45244;-57
2021/08/26 08:10:54;;;;;;;;;4.25;3.00;;;;;20.24;48.38;101328.59;5082114;27;46102;-57
2021/08/26 08:13:20;;;;;;;;;3.25;3.00;;;;;20.27;48.78;101329.28;5080529;28;45486;-58
2021/08/26 08:15:45;;;;;;;;;5.00;4.00;;;;;20.33;48.89;101330.81;5082383;28;45269;-57
2021/08/26 08:18:12;;;;;;;;;4.00;4.00;;;;;20.37;48.98;101328.88;5081977;28;45431;-57
2021/08/26 08:20:38;;;;;;;;;4.00;2.50;;;;;20.40;48.76;101324.28;5081842;28;46410;-57
2021/08/26 08:23:03;;;;;;;;;5.00;5.00;;;;;20.49;48.77;101333.66;5067950;28;45240;-56
2021/08/26 08:25:29;;;;;;;;;4.50;3.50;;;;;20.55;49.05;101338.72;5080982;28;45368;-57
2021/08/26 08:27:54;;;;;;;;;5.75;4.75;;;;;20.62;48.49;101336.63;5080350;28;45947;-57
2021/08/26 08:30:26;;;;;;;;;6.00;5.00;;;;;20.68;48.83;101336.34;5080450;28;48193;-57
2021/08/26 08:32:51;;;;;;;;;4.00;4.00;;;;;20.76;48.82;101344.00;5063645;28;45376;-57
2021/08/26 08:35:16;;;;;;;;;4.00;4.00;;;;;20.82;48.56;101342.84;5073061;28;45423;-58
2021/08/26 08:37:42;;;;;;;;;6.75;4.25;;;;;20.88;48.66;101346.09;5081511;28;45337;-57
2021/08/26 08:40:07;;;;;;;;;2.75;2.75;;;;;20.91;48.63;101337.06;5081606;28;45327;-58
2021/08/26 08:42:33;;;;;;;;;3.00;3.00;;;;;20.98;48.48;101333.16;5065683;28;45228;-58
2021/08/26 08:44:59;;;;;;;;;7.00;6.75;;;;;21.00;48.66;101336.59;5065058;28;45429;-58
2021/08/26 08:47:27;;;;;;;;;3.75;3.00;;;;;21.07;48.97;101345.22;5077800;28;46457;-56
2021/08/26 08:49:53;;;;;;;;;4.00;4.00;;;;;21.11;48.95;101341.44;5061124;28;46400;-56
2021/08/26 08:52:19;;;;;;;;;4.00;4.00;;;;;21.15;48.44;101334.13;5060884;28;45379;-57
2021/08/26 08:54:44;;;;;;;;;5.75;4.75;;;;;21.20;48.36;101345.47;5061125;28;45371;-57
2021/08/26 08:57:12;;;;;;;;;6.25;5.00;;;;;21.21;48.59;101336.50;5060842;28;45485;-57
2021/08/26 08:59:37;;;;;;;;;5.50;4.75;;;;;21.25;48.29;101340.75;5061078;28;46303;-57
2021/08/26 09:02:03;;;;;;;;;6.50;5.50;;;;;21.27;48.24;101336.22;5090844;27;45207;-56
2021/08/26 09:04:28;;;;;;;;;5.00;4.50;;;;;21.30;48.24;101336.03;5072073;28;45265;-57
2021/08/26 09:06:53;;;;;;;;;7.00;4.00;;;;;21.33;48.46;101333.19;5075726;28;45441;-57
2021/08/26 09:09:22;;;;;;;;;4.50;4.00;;;;;21.34;48.22;101326.06;5071849;28;46298;-56
2021/08/26 09:11:53;;;;;;;;;5.00;5.00;;;;;21.38;48.59;101335.66;5060530;28;45372;-57
2021/08/26 09:14:19;;;;;;;;;4.75;4.00;;;;;21.39;48.26;101338.25;5060903;28;45352;-57
2021/08/26 09:16:47;;;;;;;;;6.00;4.25;;;;;21.41;48.51;101339.03;5060612;28;45166;-57
2021/08/26 09:19:30;;;;;;;;;6.00;4.00;;;;;21.43;48.51;101341.63;5060654;28;47127;-57
2021/08/26 09:22:00;;;;;;;;;6.00;5.00;;;;;21.46;48.36;101340.59;5059075;28;45571;-57
2021/08/26 09:24:49;;;;;;;;;3.75;3.75;;;;;21.48;48.13;101333.38;5060525;28;45387;-57
2021/08/26 09:27:41;;;;;;;;;4.75;4.75;;;;;21.50;48.74;101343.06;5060604;28;45304;-56
2021/08/26 09:30:11;;;;;;;;;3.00;3.00;;;;;21.52;48.60;101345.66;5066775;28;48250;-57
2021/08/26 09:32:57;;;;;;;;;5.25;5.25;;;;;21.55;48.52;101342.84;5079220;28;45319;-56
2021/08/26 09:35:30;;;;;;;;;4.00;4.00;;;;;21.56;48.32;101344.59;5060703;28;45473;-56
2021/08/26 09:38:03;;;;;;;;;2.75;2.75;;;;;21.57;48.19;101333.81;5063252;28;45256;-56
2021/08/26 09:40:30;;;;;;;;;4.75;4.75;;;;;21.61;48.80;101333.66;5080561;27;46182;-57
2021/08/26 09:43:04;;;;;;;;;4.25;3.50;;;;;21.65;48.18;101337.91;5061185;28;45169;-57
2021/08/26 09:45:33;;;;;;;;;5.25;3.00;;;;;21.67;48.44;101339.56;5068276;28;45472;-59
2021/08/26 09:48:01;;;;;;;;;3.50;3.50;;;;;21.71;48.36;101329.56;5073517;27;45312;-57
2021/08/26 09:50:56;;;;;;;;;4.50;3.25;;;;;21.74;48.66;101329.41;5060063;28;45360;-58
2021/08/26 09:53:31;;;;;;;;;3.25;3.00;;;;;21.77;48.39;101328.38;5037265;28;46030;-57
2021/08/26 09:56:03;;;;;;;;;5.00;4.25;;;;;21.81;48.28;101325.47;5067367;28;45396;-59
2021/08/26 09:58:33;;;;;;;;;2.00;2.00;;;;;21.86;48.68;101326.09;5065841;28;45472;-58
2021/08/26 10:01:17;;;;;;;;;4.00;3.25;;;;;21.91;48.53;101324.03;5075781;28;48202;-58
2021/08/26 10:03:43;;;;;;;;;13.25;13.25;;;;;21.98;48.38;101326.41;5060050;28;45445;-58
2021/08/26 10:06:10;;;;;;;;;21.50;19.75;;;;;22.05;48.56;101325.13;5060137;28;45240;-57
2021/08/26 10:08:36;;;;;;;;;3.25;2.00;;;;;22.13;48.82;101332.75;5059834;28;45442;-57
2021/08/26 10:11:02;;;;;;;;;7.50;7.50;;;;;22.19;48.72;101324.38;5058533;28;45350;-57
2021/08/26 10:13:29;;;;;;;;;2.75;2.25;;;;;22.26;48.83;101320.41;5059821;28;45578;-58
2021/08/26 10:15:55;;;;;;;;;2.00;2.00;;;;;22.31;48.91;101323.69;5060136;28;45382;-59
2021/08/26 10:18:20;;;;;;;;;5.00;4.50;;;;;22.38;48.46;101316.25;5059651;28;45378;-57
2021/08/26 10:20:46;;;;;;;;;5.00;4.00;;;;;22.45;48.54;101319.44;5059674;28;46135;-57
2021/08/26 10:23:12;;;;;;;;;3.75;3.00;;;;;22.50;48.24;101315.56;5059557;28;45434;-57
2021/08/26 10:25:41;;;;;;;;;2.00;2.00;;;;;22.57;48.41;101313.41;5060029;28;45514;-59
2021/08/26 10:28:10;;;;;;;;;3.75;3.25;;;;;22.65;48.44;101311.16;5059512;28;45354;-57
2021/08/26 10:30:39;;;;;;;;;6.00;3.75;;;;;22.75;48.48;101307.97;5041630;28;45326;-56
2021/08/26 10:33:08;;;;;;;;;3.00;2.00;;;;;22.83;48.71;101309.25;5066784;28;45232;-58
2021/08/26 10:35:56;;;;;;;;;2.00;2.00;;;;;22.94;48.84;101311.31;5065105;28;45303;-56
2021/08/26 10:38:28;;;;;;;;;3.25;3.25;;;;;23.05;48.45;101316.06;5075559;28;45276;-58
2021/08/26 10:40:55;;;;;;;;;22.75;21.50;;;;;23.16;48.45;101315.47;5077694;27;45312;-59
2021/08/26 10:43:31;;;;;;;;;1.25;1.25;;;;;23.24;48.25;101315.03;5058379;28;45364;-57
2021/08/26 10:45:57;;;;;;;;;4.75;2.00;;;;;23.28;48.17;101314.78;5066828;28;45414;-59
2021/08/26 10:48:25;;;;;;;;;2.50;2.50;;;;;23.37;47.91;101316.91;5068636;28;45538;-58
2021/08/26 10:51:17;;;;;;;;;2.50;2.00;;;;;23.45;48.11;101313.75;5062304;28;46009;-59
2021/08/26 10:53:48;;;;;;;;;7.00;6.50;;;;;23.51;48.04;101310.72;5059090;28;45310;-58
2021/08/26 10:56:16;;;;;;;;;2.00;2.00;;;;;23.59;47.87;101320.13;5059798;28;45591;-56
2021/08/26 10:58:42;;;;;;;;;2.00;2.00;;;;;23.65;47.80;101307.19;5071411;28;45361;-56
2021/08/26 11:01:09;;;;;;;;;4.00;3.00;;;;;23.72;47.94;101307.69;5059236;28;45409;-55
2021/08/26 11:03:35;;;;;;;;;2.00;2.00;;;;;23.81;47.70;101307.13;5062271;28;45264;-57
2021/08/26 11:06:18;;;;;;;;;1.75;1.75;;;;;23.92;47.69;101311.00;5083356;28;45327;-56
2021/08/26 11:08:45;;;;;;;;;4.00;1.50;;;;;23.99;47.72;101307.00;5082942;28;45249;-57
2021/08/26 11:14:14;;;;;;;;;0.75;0.75;;;;;24.15;47.48;101313.13;5082883;28;45450;-56
2021/08/26 11:16:45;;;;;;;;;0.00;0.00;;;;;24.23;47.48;101326.06;5082749;28;45364;-56
2021/08/26 11:19:10;;;;;;;;;2.25;2.25;;;;;24.33;47.14;101320.97;5082901;28;45497;-56
2021/08/26 11:21:47;;;;;;;;;1.00;1.00;;;;;24.41;47.73;101324.03;5082495;28;45492;-56
2021/08/26 11:24:16;;;;;;;;;0.00;0.00;;;;;24.48;47.64;101316.47;5069121;28;45304;-56
2021/08/26 11:26:53;;;;;;;;;1.75;1.75;;;;;24.56;47.30;101313.28;5082257;28;45336;-56